sensor_id;sensor_type;location;lat;lon;timestamp;pressure;altitude;pressure_sealevel;temperature;humidity
39223;BME280;24936;46.328;11.026;2024-03-25T00:01:11;93546.28;;;-0.77;100.00
39223;BME280;24936;46.328;11.026;2024-03-25T00:03:36;93555.81;;;-0.36;100.00
39223;BME280;24936;46.328;11.026;2024-03-25T00:06:02;93538.84;;;-0.54;100.00
39223;BME280;24936;46.328;11.026;2024-03-25T00:08:27;93515.31;;;-1.20;100.00
39223;BME280;24936;46.328;11.026;2024-03-25T00:10:53;93525.53;;;-1.19;100.00
39223;BME280;24936;46.328;11.026;2024-03-25T00:13:19;93513.34;;;-1.31;100.00
39223;BME280;24936;46.328;11.026;2024-03-25T00:15:45;93520.81;;;-1.41;100.00
39223;BME280;24936;46.328;11.026;2024-03-25T00:18:10;93520.53;;;-1.22;100.00
39223;BME280;24936;46.328;11.026;2024-03-25T00:20:36;93512.78;;;-1.36;100.00
39223;BME280;24936;46.328;11.026;2024-03-25T00:23:02;93522.03;;;-1.32;100.00
39223;BME280;24936;46.328;11.026;2024-03-25T00:25:27;93515.75;;;-1.43;100.00
39223;BME280;24936;46.328;11.026;2024-03-25T00:27:53;93528.50;;;-1.40;100.00
39223;BME280;24936;46.328;11.026;2024-03-25T00:30:19;93515.47;;;-1.38;100.00
39223;BME280;24936;46.328;11.026;2024-03-25T00:32:44;93516.97;;;-1.34;100.00
39223;BME280;24936;46.328;11.026;2024-03-25T00:35:10;93521.38;;;-1.21;100.00
39223;BME280;24936;46.328;11.026;2024-03-25T00:37:35;93514.53;;;-1.51;100.00
39223;BME280;24936;46.328;11.026;2024-03-25T00:40:01;93516.03;;;-1.47;100.00
39223;BME280;24936;46.328;11.026;2024-03-25T00:42:26;93523.50;;;-1.14;100.00
39223;BME280;24936;46.328;11.026;2024-03-25T00:44:52;93526.00;;;-0.98;100.00
39223;BME280;24936;46.328;11.026;2024-03-25T00:47:17;93522.50;;;-1.11;100.00
39223;BME280;24936;46.328;11.026;2024-03-25T00:49:42;93519.56;;;-1.05;100.00
39223;BME280;24936;46.328;11.026;2024-03-25T00:52:08;93514.44;;;-0.92;100.00
39223;BME280;24936;46.328;11.026;2024-03-25T00:54:33;93505.78;;;-1.20;100.00
39223;BME280;24936;46.328;11.026;2024-03-25T00:56:59;93509.13;;;-1.18;100.00
39223;BME280;24936;46.328;11.026;2024-03-25T00:59:24;93503.97;;;-1.92;100.00
39223;BME280;24936;46.328;11.026;2024-03-25T01:01:50;93512.38;;;-2.19;100.00
39223;BME280;24936;46.328;11.026;2024-03-25T01:04:16;93509.50;;;-2.44;100.00
39223;BME280;24936;46.328;11.026;2024-03-25T01:06:42;93512.88;;;-2.28;100.00
39223;BME280;24936;46.328;11.026;2024-03-25T01:09:07;93513.41;;;-2.69;100.00
39223;BME280;24936;46.328;11.026;2024-03-25T01:11:33;93507.41;;;-2.54;100.00
39223;BME280;24936;46.328;11.026;2024-03-25T01:13:58;93510.47;;;-2.47;100.00
39223;BME280;24936;46.328;11.026;2024-03-25T01:16:24;93517.22;;;-2.61;100.00
39223;BME280;24936;46.328;11.026;2024-03-25T01:18:49;93518.31;;;-2.02;100.00
39223;BME280;24936;46.328;11.026;2024-03-25T01:21:15;93519.47;;;-1.77;100.00
39223;BME280;24936;46.328;11.026;2024-03-25T01:23:40;93519.00;;;-1.84;100.00
39223;BME280;24936;46.328;11.026;2024-03-25T01:26:06;93520.59;;;-2.28;100.00
39223;BME280;24936;46.328;11.026;2024-03-25T01:28:31;93515.22;;;-2.39;100.00
39223;BME280;24936;46.328;11.026;2024-03-25T01:30:57;93516.81;;;-2.06;100.00
39223;BME280;24936;46.328;11.026;2024-03-25T01:33:22;93520.66;;;-1.83;100.00
39223;BME280;24936;46.328;11.026;2024-03-25T01:35:48;93520.06;;;-1.58;100.00
39223;BME280;24936;46.328;11.026;2024-03-25T01:38:13;93526.13;;;-1.59;100.00
39223;BME280;24936;46.328;11.026;2024-03-25T01:40:39;93523.56;;;-1.59;100.00
39223;BME280;24936;46.328;11.026;2024-03-25T01:43:04;93524.28;;;-1.71;100.00
39223;BME280;24936;46.328;11.026;2024-03-25T01:45:34;93520.31;;;-1.77;100.00
39223;BME280;24936;46.328;11.026;2024-03-25T01:48:02;93520.94;;;-1.73;100.00
39223;BME280;24936;46.328;11.026;2024-03-25T01:50:29;93517.91;;;-2.10;100.00
39223;BME280;24936;46.328;11.026;2024-03-25T01:52:56;93515.13;;;-2.22;100.00
39223;BME280;24936;46.328;11.026;2024-03-25T01:55:24;93522.72;;;-2.04;100.00
39223;BME280;24936;46.328;11.026;2024-03-25T01:57:51;93533.34;;;-1.64;100.00
39223;BME280;24936;46.328;11.026;2024-03-25T02:00:18;93525.06;;;-1.40;100.00
39223;BME280;24936;46.328;11.026;2024-03-25T02:02:44;93525.50;;;-1.48;100.00
39223;BME280;24936;46.328;11.026;2024-03-25T02:05:11;93521.59;;;-1.84;100.00
39223;BME280;24936;46.328;11.026;2024-03-25T02:07:37;93522.28;;;-1.96;100.00
39223;BME280;24936;46.328;11.026;2024-03-25T02:10:06;93518.63;;;-1.78;100.00
39223;BME280;24936;46.328;11.026;2024-03-25T02:12:32;93517.47;;;-2.03;100.00
39223;BME280;24936;46.328;11.026;2024-03-25T02:14:58;93513.22;;;-2.34;100.00
39223;BME280;24936;46.328;11.026;2024-03-25T02:17:24;93525.88;;;-2.78;100.00
39223;BME280;24936;46.328;11.026;2024-03-25T02:19:50;93527.63;;;-2.94;100.00
39223;BME280;24936;46.328;11.026;2024-03-25T02:22:16;93533.69;;;-2.95;100.00
39223;BME280;24936;46.328;11.026;2024-03-25T02:24:42;93533.44;;;-2.90;100.00
39223;BME280;24936;46.328;11.026;2024-03-25T02:27:10;93529.53;;;-2.82;100.00
39223;BME280;24936;46.328;11.026;2024-03-25T02:29:39;93516.00;;;-2.85;100.00
39223;BME280;24936;46.328;11.026;2024-03-25T02:32:05;93530.63;;;-2.86;100.00
39223;BME280;24936;46.328;11.026;2024-03-25T02:34:31;93529.88;;;-2.72;100.00
39223;BME280;24936;46.328;11.026;2024-03-25T02:36:57;93530.94;;;-2.76;100.00
39223;BME280;24936;46.328;11.026;2024-03-25T02:39:22;93523.16;;;-2.74;100.00
39223;BME280;24936;46.328;11.026;2024-03-25T02:41:49;93522.47;;;-2.62;100.00
39223;BME280;24936;46.328;11.026;2024-03-25T02:44:15;93510.84;;;-2.53;100.00
39223;BME280;24936;46.328;11.026;2024-03-25T02:46:41;93517.78;;;-2.39;100.00
39223;BME280;24936;46.328;11.026;2024-03-25T02:49:07;93509.22;;;-2.24;100.00
39223;BME280;24936;46.328;11.026;2024-03-25T02:51:32;93510.97;;;-1.94;100.00
39223;BME280;24936;46.328;11.026;2024-03-25T02:53:58;93518.75;;;-1.79;100.00
39223;BME280;24936;46.328;11.026;2024-03-25T02:56:23;93521.41;;;-1.66;100.00
39223;BME280;24936;46.328;11.026;2024-03-25T02:58:48;93522.59;;;-1.72;100.00
39223;BME280;24936;46.328;11.026;2024-03-25T03:01:16;93517.81;;;-1.78;100.00
39223;BME280;24936;46.328;11.026;2024-03-25T03:03:41;93530.22;;;-1.55;100.00
39223;BME280;24936;46.328;11.026;2024-03-25T03:06:07;93537.78;;;-1.37;100.00
39223;BME280;24936;46.328;11.026;2024-03-25T03:08:32;93539.63;;;-1.39;100.00
39223;BME280;24936;46.328;11.026;2024-03-25T03:10:57;93540.19;;;-1.34;100.00
39223;BME280;24936;46.328;11.026;2024-03-25T03:13:23;93530.59;;;-1.61;100.00
39223;BME280;24936;46.328;11.026;2024-03-25T03:15:48;93518.22;;;-2.01;100.00
39223;BME280;24936;46.328;11.026;2024-03-25T03:18:13;93521.91;;;-2.51;100.00
39223;BME280;24936;46.328;11.026;2024-03-25T03:20:39;93531.97;;;-2.16;100.00
39223;BME280;24936;46.328;11.026;2024-03-25T03:23:04;93535.63;;;-2.04;100.00
39223;BME280;24936;46.328;11.026;2024-03-25T03:25:30;93536.22;;;-2.15;100.00
39223;BME280;24936;46.328;11.026;2024-03-25T03:27:56;93535.78;;;-2.38;100.00
39223;BME280;24936;46.328;11.026;2024-03-25T03:30:21;93536.06;;;-2.28;100.00
39223;BME280;24936;46.328;11.026;2024-03-25T03:32:47;93534.72;;;-2.66;100.00
39223;BME280;24936;46.328;11.026;2024-03-25T03:35:12;93544.91;;;-2.48;100.00
39223;BME280;24936;46.328;11.026;2024-03-25T03:37:38;93544.25;;;-2.52;100.00
39223;BME280;24936;46.328;11.026;2024-03-25T03:40:03;93534.59;;;-2.48;100.00
39223;BME280;24936;46.328;11.026;2024-03-25T03:42:31;93542.72;;;-2.24;100.00
39223;BME280;24936;46.328;11.026;2024-03-25T03:44:57;93537.25;;;-2.18;100.00
39223;BME280;24936;46.328;11.026;2024-03-25T03:47:22;93545.25;;;-2.70;100.00
39223;BME280;24936;46.328;11.026;2024-03-25T03:49:47;93539.44;;;-2.90;100.00
39223;BME280;24936;46.328;11.026;2024-03-25T03:52:13;93549.81;;;-2.59;100.00
39223;BME280;24936;46.328;11.026;2024-03-25T03:54:38;93542.25;;;-2.79;100.00
39223;BME280;24936;46.328;11.026;2024-03-25T03:57:04;93541.25;;;-2.92;100.00
39223;BME280;24936;46.328;11.026;2024-03-25T03:59:31;93536.75;;;-3.04;100.00
39223;BME280;24936;46.328;11.026;2024-03-25T04:01:56;93547.91;;;-2.88;100.00
39223;BME280;24936;46.328;11.026;2024-03-25T04:04:22;93551.56;;;-2.44;100.00
39223;BME280;24936;46.328;11.026;2024-03-25T04:06:47;93549.56;;;-2.55;100.00
39223;BME280;24936;46.328;11.026;2024-03-25T04:09:12;93551.91;;;-2.66;100.00
39223;BME280;24936;46.328;11.026;2024-03-25T04:11:38;93555.72;;;-2.73;100.00
39223;BME280;24936;46.328;11.026;2024-03-25T04:14:04;93557.22;;;-2.69;100.00
39223;BME280;24936;46.328;11.026;2024-03-25T04:16:30;93559.53;;;-2.81;100.00
39223;BME280;24936;46.328;11.026;2024-03-25T04:18:56;93567.16;;;-2.95;100.00
39223;BME280;24936;46.328;11.026;2024-03-25T04:21:23;93571.41;;;-3.28;100.00
39223;BME280;24936;46.328;11.026;2024-03-25T04:23:48;93572.81;;;-3.56;100.00
39223;BME280;24936;46.328;11.026;2024-03-25T04:26:15;93576.53;;;-3.79;100.00
39223;BME280;24936;46.328;11.026;2024-03-25T04:28:40;93575.78;;;-3.98;100.00
39223;BME280;24936;46.328;11.026;2024-03-25T04:31:07;93590.91;;;-3.92;100.00
39223;BME280;24936;46.328;11.026;2024-03-25T04:33:33;93582.38;;;-3.93;100.00
39223;BME280;24936;46.328;11.026;2024-03-25T04:35:59;93578.66;;;-3.87;100.00
39223;BME280;24936;46.328;11.026;2024-03-25T04:38:24;93583.44;;;-3.79;100.00
39223;BME280;24936;46.328;11.026;2024-03-25T04:40:50;93576.97;;;-3.53;100.00
39223;BME280;24936;46.328;11.026;2024-03-25T04:43:15;93574.28;;;-3.34;100.00
39223;BME280;24936;46.328;11.026;2024-03-25T04:45:41;93562.41;;;-3.36;100.00
39223;BME280;24936;46.328;11.026;2024-03-25T04:48:07;93570.00;;;-3.51;100.00
39223;BME280;24936;46.328;11.026;2024-03-25T04:50:35;93569.63;;;-3.43;100.00
39223;BME280;24936;46.328;11.026;2024-03-25T04:53:01;93576.84;;;-3.85;100.00
39223;BME280;24936;46.328;11.026;2024-03-25T04:55:26;93585.91;;;-3.95;100.00
39223;BME280;24936;46.328;11.026;2024-03-25T04:57:52;93591.22;;;-4.18;100.00
39223;BME280;24936;46.328;11.026;2024-03-25T05:00:18;93592.81;;;-4.33;100.00
39223;BME280;24936;46.328;11.026;2024-03-25T05:02:43;93599.69;;;-4.52;100.00
39223;BME280;24936;46.328;11.026;2024-03-25T05:05:09;93595.16;;;-4.28;100.00
39223;BME280;24936;46.328;11.026;2024-03-25T05:07:35;93601.31;;;-4.13;100.00
39223;BME280;24936;46.328;11.026;2024-03-25T05:10:02;93604.34;;;-4.05;100.00
39223;BME280;24936;46.328;11.026;2024-03-25T05:12:27;93609.66;;;-3.90;100.00
39223;BME280;24936;46.328;11.026;2024-03-25T05:14:56;93612.16;;;-3.71;100.00
39223;BME280;24936;46.328;11.026;2024-03-25T05:17:21;93606.16;;;-3.54;100.00
39223;BME280;24936;46.328;11.026;2024-03-25T05:19:47;93595.00;;;-3.19;100.00
39223;BME280;24936;46.328;11.026;2024-03-25T05:22:12;93596.09;;;-2.90;100.00
39223;BME280;24936;46.328;11.026;2024-03-25T05:24:38;93593.97;;;-2.66;100.00
39223;BME280;24936;46.328;11.026;2024-03-25T05:27:03;93592.63;;;-2.57;100.00
39223;BME280;24936;46.328;11.026;2024-03-25T05:29:29;93603.94;;;-2.43;100.00
39223;BME280;24936;46.328;11.026;2024-03-25T05:32:01;93613.22;;;-2.57;100.00
39223;BME280;24936;46.328;11.026;2024-03-25T05:34:27;93613.22;;;-2.73;100.00
39223;BME280;24936;46.328;11.026;2024-03-25T05:36:53;93620.34;;;-2.78;100.00
39223;BME280;24936;46.328;11.026;2024-03-25T05:39:19;93629.44;;;-3.04;100.00
39223;BME280;24936;46.328;11.026;2024-03-25T05:41:45;93627.66;;;-3.20;100.00
39223;BME280;24936;46.328;11.026;2024-03-25T05:44:10;93632.38;;;-3.46;100.00
39223;BME280;24936;46.328;11.026;2024-03-25T05:46:36;93623.28;;;-3.53;100.00
39223;BME280;24936;46.328;11.026;2024-03-25T05:49:03;93624.72;;;-3.47;100.00
39223;BME280;24936;46.328;11.026;2024-03-25T05:51:29;93630.63;;;-3.45;100.00
39223;BME280;24936;46.328;11.026;2024-03-25T05:53:55;93627.22;;;-3.46;100.00
39223;BME280;24936;46.328;11.026;2024-03-25T05:56:20;93626.63;;;-3.51;100.00
39223;BME280;24936;46.328;11.026;2024-03-25T05:58:46;93618.13;;;-3.53;100.00
39223;BME280;24936;46.328;11.026;2024-03-25T06:01:12;93626.94;;;-3.57;100.00
39223;BME280;24936;46.328;11.026;2024-03-25T06:03:37;93624.94;;;-3.52;100.00
39223;BME280;24936;46.328;11.026;2024-03-25T06:06:03;93623.50;;;-3.40;100.00
39223;BME280;24936;46.328;11.026;2024-03-25T06:08:28;93633.41;;;-3.15;100.00
39223;BME280;24936;46.328;11.026;2024-03-25T06:10:54;93639.13;;;-2.92;100.00
39223;BME280;24936;46.328;11.026;2024-03-25T06:13:21;93636.50;;;-2.74;100.00
39223;BME280;24936;46.328;11.026;2024-03-25T06:15:46;93636.88;;;-2.49;100.00
39223;BME280;24936;46.328;11.026;2024-03-25T06:18:12;93625.91;;;-2.36;100.00
39223;BME280;24936;46.328;11.026;2024-03-25T06:20:37;93634.38;;;-2.34;100.00
39223;BME280;24936;46.328;11.026;2024-03-25T06:23:04;93629.06;;;-2.15;100.00
39223;BME280;24936;46.328;11.026;2024-03-25T06:25:29;93636.69;;;-2.13;100.00
39223;BME280;24936;46.328;11.026;2024-03-25T06:27:55;93634.53;;;-2.05;100.00
39223;BME280;24936;46.328;11.026;2024-03-25T06:30:20;93643.09;;;-1.89;100.00
39223;BME280;24936;46.328;11.026;2024-03-25T06:33:04;93641.16;;;-1.69;100.00
39223;BME280;24936;46.328;11.026;2024-03-25T06:35:48;93649.16;;;-1.43;100.00
39223;BME280;24936;46.328;11.026;2024-03-25T06:38:14;93649.63;;;-1.36;100.00
39223;BME280;24936;46.328;11.026;2024-03-25T06:40:40;93652.91;;;-1.33;100.00
39223;BME280;24936;46.328;11.026;2024-03-25T06:43:05;93659.78;;;-1.33;100.00
39223;BME280;24936;46.328;11.026;2024-03-25T06:45:31;93661.13;;;-1.26;100.00
39223;BME280;24936;46.328;11.026;2024-03-25T06:48:00;93655.97;;;-1.12;100.00
39223;BME280;24936;46.328;11.026;2024-03-25T06:50:25;93651.84;;;-0.85;100.00
39223;BME280;24936;46.328;11.026;2024-03-25T06:52:51;93649.09;;;-0.53;100.00
39223;BME280;24936;46.328;11.026;2024-03-25T06:55:16;93646.69;;;-0.42;100.00
39223;BME280;24936;46.328;11.026;2024-03-25T06:57:43;93644.91;;;-0.41;100.00
39223;BME280;24936;46.328;11.026;2024-03-25T07:00:09;93650.09;;;-0.41;100.00
39223;BME280;24936;46.328;11.026;2024-03-25T07:02:41;93667.38;;;-0.42;100.00
39223;BME280;24936;46.328;11.026;2024-03-25T07:05:07;93665.53;;;-0.54;100.00
39223;BME280;24936;46.328;11.026;2024-03-25T07:07:33;93658.06;;;-0.59;100.00
39223;BME280;24936;46.328;11.026;2024-03-25T07:09:59;93661.00;;;-0.51;100.00
39223;BME280;24936;46.328;11.026;2024-03-25T07:12:25;93651.66;;;-0.24;100.00
39223;BME280;24936;46.328;11.026;2024-03-25T07:14:50;93649.69;;;-0.06;100.00
39223;BME280;24936;46.328;11.026;2024-03-25T07:17:16;93638.25;;;-0.17;100.00
39223;BME280;24936;46.328;11.026;2024-03-25T07:19:41;93641.44;;;0.02;100.00
39223;BME280;24936;46.328;11.026;2024-03-25T07:22:07;93637.78;;;0.19;100.00
39223;BME280;24936;46.328;11.026;2024-03-25T07:24:33;93648.00;;;0.07;100.00
39223;BME280;24936;46.328;11.026;2024-03-25T07:26:58;93651.91;;;0.27;100.00
39223;BME280;24936;46.328;11.026;2024-03-25T07:29:24;93654.31;;;0.43;100.00
39223;BME280;24936;46.328;11.026;2024-03-25T07:31:49;93642.81;;;0.35;100.00
39223;BME280;24936;46.328;11.026;2024-03-25T07:34:14;93641.09;;;0.21;100.00
39223;BME280;24936;46.328;11.026;2024-03-25T07:36:40;93634.88;;;0.23;100.00
39223;BME280;24936;46.328;11.026;2024-03-25T07:39:05;93624.69;;;0.75;100.00
39223;BME280;24936;46.328;11.026;2024-03-25T07:41:31;93616.63;;;0.93;100.00
39223;BME280;24936;46.328;11.026;2024-03-25T07:43:57;93625.56;;;1.14;100.00
39223;BME280;24936;46.328;11.026;2024-03-25T07:46:22;93624.63;;;1.15;100.00
39223;BME280;24936;46.328;11.026;2024-03-25T07:48:48;93630.81;;;1.51;100.00
39223;BME280;24936;46.328;11.026;2024-03-25T07:51:13;93632.38;;;1.41;100.00
39223;BME280;24936;46.328;11.026;2024-03-25T07:53:38;93628.88;;;1.42;100.00
39223;BME280;24936;46.328;11.026;2024-03-25T07:56:04;93644.84;;;1.49;100.00
39223;BME280;24936;46.328;11.026;2024-03-25T07:58:30;93645.00;;;1.72;100.00
39223;BME280;24936;46.328;11.026;2024-03-25T08:00:56;93646.88;;;1.82;100.00
39223;BME280;24936;46.328;11.026;2024-03-25T08:03:21;93641.47;;;2.10;100.00
39223;BME280;24936;46.328;11.026;2024-03-25T08:05:48;93634.69;;;2.44;100.00
39223;BME280;24936;46.328;11.026;2024-03-25T08:08:14;93627.09;;;2.90;100.00
39223;BME280;24936;46.328;11.026;2024-03-25T08:10:39;93630.31;;;3.05;100.00
39223;BME280;24936;46.328;11.026;2024-03-25T08:13:05;93633.50;;;2.97;100.00
39223;BME280;24936;46.328;11.026;2024-03-25T08:15:30;93633.66;;;3.18;100.00
39223;BME280;24936;46.328;11.026;2024-03-25T08:17:55;93634.84;;;3.14;100.00
39223;BME280;24936;46.328;11.026;2024-03-25T08:20:21;93628.66;;;3.04;100.00
39223;BME280;24936;46.328;11.026;2024-03-25T08:22:48;93624.34;;;3.27;100.00
39223;BME280;24936;46.328;11.026;2024-03-25T08:25:13;93614.53;;;3.42;100.00
39223;BME280;24936;46.328;11.026;2024-03-25T08:27:39;93613.47;;;3.56;100.00
39223;BME280;24936;46.328;11.026;2024-03-25T08:30:04;93622.22;;;3.78;100.00
39223;BME280;24936;46.328;11.026;2024-03-25T08:32:31;93611.44;;;3.82;100.00
39223;BME280;24936;46.328;11.026;2024-03-25T08:34:58;93618.69;;;3.67;100.00
39223;BME280;24936;46.328;11.026;2024-03-25T08:37:23;93614.88;;;3.72;100.00
39223;BME280;24936;46.328;11.026;2024-03-25T08:39:49;93629.31;;;3.76;100.00
39223;BME280;24936;46.328;11.026;2024-03-25T08:42:14;93627.38;;;4.12;100.00
39223;BME280;24936;46.328;11.026;2024-03-25T08:44:40;93641.88;;;5.02;100.00
39223;BME280;24936;46.328;11.026;2024-03-25T08:47:05;93633.41;;;5.53;100.00
39223;BME280;24936;46.328;11.026;2024-03-25T08:49:30;93623.94;;;5.82;100.00
39223;BME280;24936;46.328;11.026;2024-03-25T08:51:56;93636.63;;;5.97;85.99
39223;BME280;24936;46.328;11.026;2024-03-25T08:54:21;93646.28;;;6.37;70.83
39223;BME280;24936;46.328;11.026;2024-03-25T08:56:47;93636.84;;;8.20;61.23
39223;BME280;24936;46.328;11.026;2024-03-25T08:59:12;93628.44;;;8.90;59.43
39223;BME280;24936;46.328;11.026;2024-03-25T09:01:37;93637.84;;;8.65;51.10
39223;BME280;24936;46.328;11.026;2024-03-25T09:04:03;93632.38;;;9.30;50.58
39223;BME280;24936;46.328;11.026;2024-03-25T09:06:29;93624.72;;;9.90;53.10
39223;BME280;24936;46.328;11.026;2024-03-25T09:08:54;93634.59;;;8.71;46.11
39223;BME280;24936;46.328;11.026;2024-03-25T09:11:38;93628.97;;;10.60;44.42
39223;BME280;24936;46.328;11.026;2024-03-25T09:14:03;93616.16;;;10.74;45.76
39223;BME280;24936;46.328;11.026;2024-03-25T09:16:31;93617.16;;;12.45;40.27
39223;BME280;24936;46.328;11.026;2024-03-25T09:18:56;93628.22;;;11.42;36.97
39223;BME280;24936;46.328;11.026;2024-03-25T09:21:22;93612.25;;;11.69;40.38
39223;BME280;24936;46.328;11.026;2024-03-25T09:23:49;93615.50;;;11.87;35.22
39223;BME280;24936;46.328;11.026;2024-03-25T09:26:15;93614.41;;;14.31;31.97
39223;BME280;24936;46.328;11.026;2024-03-25T09:28:40;93618.84;;;13.85;30.56
39223;BME280;24936;46.328;11.026;2024-03-25T09:31:06;93606.72;;;13.91;32.17
39223;BME280;24936;46.328;11.026;2024-03-25T09:33:31;93618.59;;;14.92;29.90
39223;BME280;24936;46.328;11.026;2024-03-25T09:35:57;93603.53;;;13.42;33.33
39223;BME280;24936;46.328;11.026;2024-03-25T09:38:22;93606.31;;;12.71;34.00
39223;BME280;24936;46.328;11.026;2024-03-25T09:40:48;93600.94;;;13.72;32.19
39223;BME280;24936;46.328;11.026;2024-03-25T09:43:25;93608.09;;;13.49;31.47
39223;BME280;24936;46.328;11.026;2024-03-25T09:45:54;93599.78;;;12.59;32.74
39223;BME280;24936;46.328;11.026;2024-03-25T09:48:21;93587.19;;;12.69;35.37
39223;BME280;24936;46.328;11.026;2024-03-25T09:50:47;93579.56;;;12.97;32.99
39223;BME280;24936;46.328;11.026;2024-03-25T09:53:12;93584.72;;;12.91;32.23
39223;BME280;24936;46.328;11.026;2024-03-25T09:55:38;93573.94;;;15.54;29.44
39223;BME280;24936;46.328;11.026;2024-03-25T09:58:03;93566.44;;;14.56;29.92
39223;BME280;24936;46.328;11.026;2024-03-25T10:00:30;93553.38;;;13.87;32.05
39223;BME280;24936;46.328;11.026;2024-03-25T10:02:55;93550.09;;;13.70;36.42
39223;BME280;24936;46.328;11.026;2024-03-25T10:05:21;93562.41;;;15.40;31.14
39223;BME280;24936;46.328;11.026;2024-03-25T10:07:46;93549.56;;;15.15;33.73
39223;BME280;24936;46.328;11.026;2024-03-25T10:10:12;93554.94;;;15.00;30.48
39223;BME280;24936;46.328;11.026;2024-03-25T10:12:37;93543.97;;;15.82;31.19
39223;BME280;24936;46.328;11.026;2024-03-25T10:15:03;93545.31;;;14.41;30.96
39223;BME280;24936;46.328;11.026;2024-03-25T10:17:32;93545.59;;;13.56;28.67
39223;BME280;24936;46.328;11.026;2024-03-25T10:19:57;93529.44;;;14.77;31.41
39223;BME280;24936;46.328;11.026;2024-03-25T10:22:23;93543.06;;;16.45;26.17
39223;BME280;24936;46.328;11.026;2024-03-25T10:24:49;93536.72;;;15.97;27.48
39223;BME280;24936;46.328;11.026;2024-03-25T10:27:22;93541.81;;;15.64;27.10
39223;BME280;24936;46.328;11.026;2024-03-25T10:29:51;93537.41;;;14.11;26.75
39223;BME280;24936;46.328;11.026;2024-03-25T10:32:17;93531.63;;;16.38;27.24
39223;BME280;24936;46.328;11.026;2024-03-25T10:34:43;93534.94;;;15.19;27.08
39223;BME280;24936;46.328;11.026;2024-03-25T10:37:10;93517.69;;;15.87;27.58
39223;BME280;24936;46.328;11.026;2024-03-25T10:39:42;93500.06;;;16.14;29.19
39223;BME280;24936;46.328;11.026;2024-03-25T10:42:11;93506.16;;;15.16;26.98
39223;BME280;24936;46.328;11.026;2024-03-25T10:44:38;93508.63;;;16.72;26.47
39223;BME280;24936;46.328;11.026;2024-03-25T10:47:05;93511.25;;;13.86;25.43
39223;BME280;24936;46.328;11.026;2024-03-25T10:49:57;93497.75;;;13.81;26.27
39223;BME280;24936;46.328;11.026;2024-03-25T10:52:26;93493.06;;;14.49;26.39
39223;BME280;24936;46.328;11.026;2024-03-25T10:54:54;93493.75;;;14.58;25.14
39223;BME280;24936;46.328;11.026;2024-03-25T10:57:20;93474.28;;;15.31;25.96
39223;BME280;24936;46.328;11.026;2024-03-25T10:59:47;93463.78;;;14.94;28.58
39223;BME280;24936;46.328;11.026;2024-03-25T11:02:14;93485.72;;;13.78;26.67
39223;BME280;24936;46.328;11.026;2024-03-25T11:04:39;93465.53;;;14.65;27.52
39223;BME280;24936;46.328;11.026;2024-03-25T11:07:14;93460.13;;;14.95;27.34
39223;BME280;24936;46.328;11.026;2024-03-25T11:09:41;93455.00;;;15.79;27.92
39223;BME280;24936;46.328;11.026;2024-03-25T11:12:12;93456.94;;;15.64;27.02
39223;BME280;24936;46.328;11.026;2024-03-25T11:14:38;93449.44;;;14.82;26.55
39223;BME280;24936;46.328;11.026;2024-03-25T11:17:16;93452.03;;;14.38;27.94
39223;BME280;24936;46.328;11.026;2024-03-25T11:19:42;93455.28;;;14.77;26.09
39223;BME280;24936;46.328;11.026;2024-03-25T11:22:09;93455.50;;;15.68;27.50
39223;BME280;24936;46.328;11.026;2024-03-25T11:24:35;93457.44;;;15.17;26.15
39223;BME280;24936;46.328;11.026;2024-03-25T11:27:05;93449.13;;;15.55;26.68
39223;BME280;24936;46.328;11.026;2024-03-25T11:29:31;93460.34;;;14.35;25.28
39223;BME280;24936;46.328;11.026;2024-03-25T11:31:59;93459.41;;;14.43;25.43
39223;BME280;24936;46.328;11.026;2024-03-25T11:34:27;93452.22;;;15.94;24.57
39223;BME280;24936;46.328;11.026;2024-03-25T11:36:53;93452.56;;;14.92;24.90
39223;BME280;24936;46.328;11.026;2024-03-25T11:39:21;93435.09;;;14.98;25.27
39223;BME280;24936;46.328;11.026;2024-03-25T11:41:47;93438.72;;;14.68;26.02
39223;BME280;24936;46.328;11.026;2024-03-25T11:44:13;93431.28;;;14.64;25.08
39223;BME280;24936;46.328;11.026;2024-03-25T11:46:39;93437.16;;;14.37;25.23
39223;BME280;24936;46.328;11.026;2024-03-25T11:49:11;93421.72;;;15.41;25.37
39223;BME280;24936;46.328;11.026;2024-03-25T11:51:40;93415.31;;;15.01;25.66
39223;BME280;24936;46.328;11.026;2024-03-25T11:54:07;93420.84;;;15.34;24.83
39223;BME280;24936;46.328;11.026;2024-03-25T11:56:32;93409.22;;;16.12;25.18
39223;BME280;24936;46.328;11.026;2024-03-25T11:59:01;93411.47;;;14.53;25.31
39223;BME280;24936;46.328;11.026;2024-03-25T12:01:28;93407.16;;;14.52;25.43
39223;BME280;24936;46.328;11.026;2024-03-25T12:03:53;93403.25;;;14.70;25.09
39223;BME280;24936;46.328;11.026;2024-03-25T12:06:19;93385.16;;;15.72;26.82
39223;BME280;24936;46.328;11.026;2024-03-25T12:08:45;93390.41;;;15.58;25.32
39223;BME280;24936;46.328;11.026;2024-03-25T12:11:30;93381.91;;;14.99;26.12
39223;BME280;24936;46.328;11.026;2024-03-25T12:13:56;93372.97;;;15.84;25.93
39223;BME280;24936;46.328;11.026;2024-03-25T12:16:23;93385.84;;;15.10;24.77
39223;BME280;24936;46.328;11.026;2024-03-25T12:18:48;93375.91;;;15.54;26.05
39223;BME280;24936;46.328;11.026;2024-03-25T12:21:14;93376.72;;;15.20;24.47
39223;BME280;24936;46.328;11.026;2024-03-25T12:23:42;93380.03;;;15.28;23.76
39223;BME280;24936;46.328;11.026;2024-03-25T12:26:07;93373.81;;;14.79;25.01
39223;BME280;24936;46.328;11.026;2024-03-25T12:28:33;93365.00;;;15.84;25.59
39223;BME280;24936;46.328;11.026;2024-03-25T12:31:07;93369.53;;;15.07;23.66
39223;BME280;24936;46.328;11.026;2024-03-25T12:33:43;93362.31;;;15.29;23.92
39223;BME280;24936;46.328;11.026;2024-03-25T12:36:09;93348.88;;;16.95;24.51
39223;BME280;24936;46.328;11.026;2024-03-25T12:38:36;93343.75;;;16.87;25.94
39223;BME280;24936;46.328;11.026;2024-03-25T12:41:12;93350.47;;;15.25;25.69